createdAt,value
2018-07-19T00:00:31.683Z,0.00
2018-07-19T00:01:31.705Z,0.00
2018-07-19T00:02:31.702Z,0.00
2018-07-19T00:03:31.729Z,0.00
2018-07-19T00:04:31.744Z,0.00
2018-07-19T00:05:31.769Z,0.00
2018-07-19T00:06:31.798Z,0.00
2018-07-19T00:07:31.808Z,0.00
2018-07-19T00:08:31.834Z,0.00
2018-07-19T00:09:31.848Z,0.00
2018-07-19T00:10:31.861Z,0.00
2018-07-19T00:11:31.889Z,0.00
2018-07-19T00:12:31.920Z,0.00
2018-07-19T00:13:31.926Z,0.00
2018-07-19T00:14:31.949Z,0.00
2018-07-19T00:15:31.973Z,0.00
2018-07-19T00:16:32.014Z,0.00
2018-07-19T00:17:32.006Z,0.00
2018-07-19T00:18:32.024Z,0.00
2018-07-19T00:19:32.044Z,0.00
2018-07-19T00:20:32.068Z,0.00
2018-07-19T00:21:32.082Z,0.00
2018-07-19T00:22:32.106Z,0.00
2018-07-19T00:23:32.126Z,0.00
2018-07-19T00:24:32.152Z,0.00
2018-07-19T00:25:32.167Z,0.00
2018-07-19T00:26:32.190Z,0.00
2018-07-19T00:27:32.217Z,0.00
2018-07-19T00:28:32.227Z,0.00
2018-07-19T00:29:32.243Z,0.00
2018-07-19T00:30:32.263Z,0.00
2018-07-19T00:31:32.284Z,0.00
2018-07-19T00:32:32.302Z,0.00
2018-07-19T00:33:32.320Z,0.00
2018-07-19T00:34:32.340Z,0.00
2018-07-19T00:35:32.366Z,0.00
2018-07-19T00:36:32.383Z,0.00
2018-07-19T00:37:32.400Z,0.00
2018-07-19T00:38:32.421Z,0.00
2018-07-19T00:39:32.458Z,0.00
2018-07-19T00:40:32.458Z,0.00
2018-07-19T00:41:32.483Z,0.00
2018-07-19T00:42:32.503Z,0.00
2018-07-19T00:43:32.523Z,0.00
2018-07-19T00:44:32.542Z,0.00
2018-07-19T00:45:32.559Z,0.00
2018-07-19T00:46:32.576Z,0.00
2018-07-19T00:47:32.597Z,0.00
2018-07-19T00:48:32.618Z,0.00
2018-07-19T00:49:32.638Z,0.00
2018-07-19T00:50:32.671Z,0.00
2018-07-19T00:51:32.695Z,0.00
2018-07-19T00:52:32.694Z,0.00
2018-07-19T00:53:32.719Z,0.00
2018-07-19T00:54:32.736Z,0.00
2018-07-19T00:55:32.754Z,0.00
2018-07-19T00:56:32.768Z,0.00
2018-07-19T00:57:32.799Z,0.00
2018-07-19T00:58:32.810Z,0.00
2018-07-19T00:59:32.874Z,0.00
2018-07-19T01:00:32.927Z,0.00
2018-07-19T01:01:32.871Z,0.00
2018-07-19T01:02:32.893Z,0.00
2018-07-19T01:03:32.915Z,0.00
2018-07-19T01:04:32.929Z,0.00
2018-07-19T01:05:32.950Z,0.00
2018-07-19T01:06:32.965Z,0.00
2018-07-19T01:07:32.995Z,0.00
2018-07-19T01:08:33.003Z,0.00
2018-07-19T01:09:33.019Z,0.00
2018-07-19T01:10:33.047Z,0.00
2018-07-19T01:11:33.059Z,0.00
2018-07-19T01:12:33.093Z,0.00
2018-07-19T01:13:33.101Z,0.00
2018-07-19T01:14:33.119Z,0.00
2018-07-19T01:15:33.143Z,0.00
2018-07-19T01:16:33.160Z,0.00
2018-07-19T01:17:33.182Z,0.00
2018-07-19T01:18:33.210Z,0.00
2018-07-19T01:19:33.221Z,0.00
2018-07-19T01:20:33.237Z,0.00
2018-07-19T01:21:33.255Z,0.00
2018-07-19T01:22:33.278Z,0.00
2018-07-19T01:23:33.296Z,0.00
2018-07-19T01:24:33.315Z,0.00
2018-07-19T01:25:33.332Z,0.00
2018-07-19T01:26:33.356Z,0.00
2018-07-19T01:27:33.377Z,0.00
2018-07-19T01:28:33.391Z,0.00
2018-07-19T01:29:33.407Z,0.00
2018-07-19T01:30:33.432Z,0.00
2018-07-19T01:31:33.449Z,0.00
2018-07-19T01:32:33.475Z,0.00
2018-07-19T01:33:33.487Z,0.00
2018-07-19T01:34:33.528Z,0.00
2018-07-19T01:35:33.533Z,0.00
2018-07-19T01:36:33.545Z,0.00
2018-07-19T01:37:33.567Z,0.00
2018-07-19T01:38:33.578Z,0.00
2018-07-19T01:39:33.602Z,0.00
2018-07-19T01:40:33.627Z,0.00
2018-07-19T01:41:33.643Z,0.00
2018-07-19T01:42:33.654Z,0.00
2018-07-19T01:43:33.675Z,0.00
2018-07-19T01:44:33.708Z,0.00
2018-07-19T01:45:33.723Z,0.00
2018-07-19T01:46:33.739Z,0.00
2018-07-19T01:47:33.763Z,0.00
2018-07-19T01:48:33.781Z,0.00
2018-07-19T01:49:33.794Z,0.00
2018-07-19T01:50:33.815Z,0.00
2018-07-19T01:51:33.841Z,0.00
2018-07-19T01:52:33.855Z,0.00
2018-07-19T01:53:33.870Z,0.00
2018-07-19T01:54:33.901Z,0.00
2018-07-19T01:55:33.915Z,0.00
2018-07-19T01:56:33.938Z,0.00
2018-07-19T01:57:33.943Z,0.00
2018-07-19T01:58:33.969Z,0.00
2018-07-19T01:59:33.989Z,0.00
2018-07-19T02:00:34.011Z,0.00
2018-07-19T02:01:34.019Z,0.00
2018-07-19T02:02:34.051Z,0.00
2018-07-19T02:03:34.066Z,0.00
2018-07-19T02:04:34.087Z,0.00
2018-07-19T02:05:34.097Z,0.00
2018-07-19T02:06:34.140Z,0.00
2018-07-19T02:07:34.137Z,0.00
2018-07-19T02:08:34.173Z,0.00
2018-07-19T02:09:34.196Z,0.00
2018-07-19T02:10:34.196Z,0.00
2018-07-19T02:11:34.232Z,0.00
2018-07-19T02:12:34.232Z,0.00
2018-07-19T02:13:34.258Z,0.00
2018-07-19T02:14:34.283Z,0.00
2018-07-19T02:15:34.301Z,0.00
2018-07-19T02:16:34.309Z,0.00
2018-07-19T02:17:34.335Z,0.00
2018-07-19T02:18:34.354Z,0.00
2018-07-19T02:19:34.381Z,0.00
2018-07-19T02:20:34.392Z,0.00
2018-07-19T02:21:34.399Z,0.00
2018-07-19T02:22:34.422Z,0.00
2018-07-19T02:23:34.442Z,0.00
2018-07-19T02:24:34.460Z,0.00
2018-07-19T02:25:34.489Z,0.00
2018-07-19T02:26:34.500Z,0.00
2018-07-19T02:27:34.516Z,4.00
2018-07-19T02:28:34.537Z,4.00
2018-07-19T02:29:34.557Z,4.00
2018-07-19T02:30:34.602Z,4.00
2018-07-19T02:31:34.604Z,4.00
2018-07-19T02:32:34.619Z,4.00
2018-07-19T02:33:34.636Z,4.00
2018-07-19T02:34:34.650Z,4.00
2018-07-19T02:35:34.698Z,4.00
2018-07-19T02:36:34.693Z,0.00
2018-07-19T02:37:34.704Z,0.00
2018-07-19T02:38:34.729Z,4.00
2018-07-19T02:39:34.746Z,4.00
2018-07-19T02:40:34.765Z,4.00
2018-07-19T02:41:34.784Z,4.00
2018-07-19T02:42:34.801Z,4.00
2018-07-19T02:43:34.825Z,8.00
2018-07-19T02:44:34.859Z,4.00
2018-07-19T02:45:34.853Z,4.00
2018-07-19T02:46:34.877Z,8.00
2018-07-19T02:47:34.899Z,8.00
2018-07-19T02:48:34.912Z,8.00
2018-07-19T02:49:34.934Z,12.00
2018-07-19T02:50:34.980Z,8.00
2018-07-19T02:51:34.976Z,12.00
2018-07-19T02:52:34.990Z,12.00
2018-07-19T02:53:35.008Z,12.00
2018-07-19T02:54:35.026Z,20.00
2018-07-19T02:55:35.052Z,16.00
2018-07-19T02:56:35.062Z,20.00
2018-07-19T02:57:35.100Z,24.00
2018-07-19T02:58:35.110Z,28.00
2018-07-19T02:59:35.130Z,32.00
2018-07-19T03:00:35.192Z,32.00
2018-07-19T03:01:35.162Z,40.00
2018-07-19T03:02:35.176Z,44.00
2018-07-19T03:03:35.192Z,52.00
2018-07-19T03:04:35.231Z,60.00
2018-07-19T03:05:35.241Z,64.00
2018-07-19T03:06:35.306Z,72.00
2018-07-19T03:07:35.311Z,84.00
2018-07-19T03:08:35.303Z,92.00
2018-07-19T03:09:35.320Z,100.00
2018-07-19T03:10:35.333Z,116.00
2018-07-19T03:11:35.359Z,128.00
2018-07-19T03:12:35.367Z,144.00
2018-07-19T03:13:35.394Z,156.00
2018-07-19T03:14:35.402Z,176.00
2018-07-19T03:15:35.420Z,192.00
2018-07-19T03:16:35.443Z,212.00
2018-07-19T03:17:35.458Z,232.00
2018-07-19T03:18:35.480Z,256.00
2018-07-19T03:19:35.496Z,280.00
2018-07-19T03:20:35.515Z,304.00
2018-07-19T03:21:35.532Z,336.00
2018-07-19T03:22:35.563Z,364.00
2018-07-19T03:23:35.573Z,396.00
2018-07-19T03:24:35.589Z,428.00
2018-07-19T03:25:35.613Z,464.00
2018-07-19T03:26:35.627Z,500.00
2018-07-19T03:27:35.658Z,540.00
2018-07-19T03:28:35.663Z,580.00
2018-07-19T03:29:35.692Z,624.00
2018-07-19T03:30:35.702Z,672.00
2018-07-19T03:31:35.724Z,720.00
2018-07-19T03:32:35.742Z,768.00
2018-07-19T03:33:35.757Z,824.00
2018-07-19T03:34:35.773Z,880.00
2018-07-19T03:35:35.794Z,936.00
2018-07-19T03:36:35.827Z,992.00
2018-07-19T03:37:35.878Z,1048.00
2018-07-19T03:38:35.873Z,1112.00
2018-07-19T03:39:35.869Z,1180.00
2018-07-19T03:40:35.884Z,1244.00
2018-07-19T03:41:35.947Z,1312.00
2018-07-19T03:42:35.925Z,1388.00
2018-07-19T03:43:35.946Z,1472.00
2018-07-19T03:44:36.010Z,1560.00
2018-07-19T03:45:35.982Z,1644.00
2018-07-19T03:46:36.002Z,1736.00
2018-07-19T03:47:36.021Z,1832.00
2018-07-19T03:48:36.041Z,1924.00
2018-07-19T03:49:36.063Z,2020.00
2018-07-19T03:50:36.100Z,2112.00
2018-07-19T03:51:36.090Z,2204.00
2018-07-19T03:52:36.110Z,2300.00
2018-07-19T03:53:36.130Z,2392.00
2018-07-19T03:54:36.150Z,2488.00
2018-07-19T03:55:36.174Z,2584.00
2018-07-19T03:56:36.187Z,2684.00
2018-07-19T03:57:36.203Z,2776.00
2018-07-19T03:58:36.228Z,2880.00
2018-07-19T03:59:36.249Z,2984.00
2018-07-19T04:00:36.263Z,3084.00
2018-07-19T04:01:36.281Z,3188.00
2018-07-19T04:02:36.324Z,3284.00
2018-07-19T04:03:36.329Z,3384.00
2018-07-19T04:04:36.337Z,3484.00
2018-07-19T04:05:36.374Z,3584.00
2018-07-19T04:06:36.374Z,3684.00
2018-07-19T04:07:36.397Z,3788.00
2018-07-19T04:08:36.419Z,3888.00
2018-07-19T04:09:36.436Z,3992.00
2018-07-19T04:10:36.477Z,4092.00
2018-07-19T04:11:36.466Z,4192.00
2018-07-19T04:12:36.495Z,4296.00
2018-07-19T04:13:36.506Z,4404.00
2018-07-19T04:14:36.549Z,4504.00
2018-07-19T04:15:36.546Z,4612.00
2018-07-19T04:16:36.562Z,4720.00
2018-07-19T04:17:36.581Z,4824.00
2018-07-19T04:18:36.603Z,4932.00
2018-07-19T04:19:36.624Z,5040.00
2018-07-19T04:20:36.634Z,5148.00
2018-07-19T04:21:36.661Z,5256.00
2018-07-19T04:22:36.674Z,5368.00
2018-07-19T04:23:36.704Z,5476.00
2018-07-19T04:24:36.745Z,5584.00
2018-07-19T04:25:36.739Z,5692.00
2018-07-19T04:26:36.754Z,5800.00
2018-07-19T04:27:36.786Z,5904.00
2018-07-19T04:28:36.791Z,6008.00
2018-07-19T04:29:36.807Z,6104.00
2018-07-19T04:30:36.858Z,6200.00
2018-07-19T04:31:36.851Z,6288.00
2018-07-19T04:32:36.863Z,6380.00
2018-07-19T04:33:36.881Z,6468.00
2018-07-19T04:34:36.904Z,6556.00
2018-07-19T04:35:36.922Z,6648.00
2018-07-19T04:36:36.942Z,6728.00
2018-07-19T04:37:36.966Z,6820.00
2018-07-19T04:38:36.980Z,6904.00
2018-07-19T04:39:37.000Z,6992.00
2018-07-19T04:40:37.023Z,7084.00
2018-07-19T04:41:37.044Z,7176.00
2018-07-19T04:42:37.059Z,7264.00
2018-07-19T04:43:37.099Z,7348.00
2018-07-19T04:44:37.111Z,7432.00
2018-07-19T04:45:37.111Z,7508.00
2018-07-19T04:46:37.131Z,7592.00
2018-07-19T04:47:37.155Z,7684.00
2018-07-19T04:48:37.168Z,7776.00
2018-07-19T04:49:37.192Z,7872.00
2018-07-19T04:50:37.217Z,7952.00
2018-07-19T04:51:37.225Z,8036.00
2018-07-19T04:52:37.243Z,8144.00
2018-07-19T04:53:37.271Z,8280.00
2018-07-19T04:54:37.316Z,8488.00
2018-07-19T04:55:37.308Z,8772.00
2018-07-19T04:56:37.346Z,9112.00
2018-07-19T04:57:37.345Z,9564.00
2018-07-19T04:58:37.363Z,12540.00
2018-07-19T04:59:37.386Z,32416.00
2018-07-19T05:00:37.411Z,47712.00
2018-07-19T05:01:37.454Z,47584.00
2018-07-19T05:02:37.444Z,47456.00
2018-07-19T05:03:37.466Z,46528.00
2018-07-19T05:04:37.487Z,44384.00
2018-07-19T05:05:37.502Z,43680.00
2018-07-19T05:06:37.580Z,43264.00
2018-07-19T05:07:37.553Z,44576.00
2018-07-19T05:08:37.573Z,44512.00
2018-07-19T05:09:37.597Z,46464.00
2018-07-19T05:10:37.621Z,46272.00
2018-07-19T05:11:37.653Z,43712.00
2018-07-19T05:12:37.692Z,40640.00
2018-07-19T05:13:37.689Z,36864.00
2018-07-19T05:14:37.710Z,33216.00
2018-07-19T05:15:37.732Z,30048.00
2018-07-19T05:16:37.758Z,29120.00
2018-07-19T05:17:37.781Z,30432.00
2018-07-19T05:18:37.806Z,34912.00
2018-07-19T05:19:37.833Z,40704.00
2018-07-19T05:20:37.863Z,45536.00
2018-07-19T05:21:37.881Z,47840.00
2018-07-19T05:22:37.909Z,49760.00
2018-07-19T05:23:37.935Z,50400.00
2018-07-19T05:24:37.961Z,51360.00
2018-07-19T05:25:37.985Z,51904.00
2018-07-19T05:26:38.009Z,51936.00
2018-07-19T05:27:38.037Z,51872.00
2018-07-19T05:28:38.069Z,52992.00
2018-07-19T05:29:38.089Z,54720.00
2018-07-19T05:30:38.108Z,54496.00
2018-07-19T05:31:38.151Z,53920.00
2018-07-19T05:32:38.167Z,54944.00
2018-07-19T05:33:38.193Z,56064.00
2018-07-19T05:34:38.288Z,57632.00
2018-07-19T05:35:38.246Z,58688.00
2018-07-19T05:36:38.272Z,59968.00
2018-07-19T05:37:38.303Z,61408.00
2018-07-19T05:38:38.330Z,61568.00
2018-07-19T05:39:38.357Z,61984.00
2018-07-19T05:40:38.442Z,60448.00
2018-07-19T05:41:38.410Z,57088.00
2018-07-19T05:42:38.439Z,53440.00
2018-07-19T05:43:38.465Z,52000.00
2018-07-19T05:44:38.488Z,52224.00
2018-07-19T05:45:38.521Z,52608.00
2018-07-19T05:46:38.544Z,52416.00
2018-07-19T05:47:38.576Z,50560.00
2018-07-19T05:48:38.609Z,48768.00
2018-07-19T05:49:38.634Z,50368.00
2018-07-19T05:50:38.666Z,51072.00
2018-07-19T05:51:38.688Z,52000.00
2018-07-19T05:52:38.719Z,51904.00
2018-07-19T05:53:38.768Z,51616.00
2018-07-19T05:54:38.776Z,49792.00
2018-07-19T05:55:38.799Z,48160.00
2018-07-19T05:56:38.825Z,46720.00
2018-07-19T05:57:38.855Z,45120.00
2018-07-19T05:58:38.881Z,44480.00
2018-07-19T05:59:38.920Z,43712.00
2018-07-19T06:00:38.950Z,43264.00
2018-07-19T06:01:38.976Z,43200.00
2018-07-19T06:02:38.994Z,42912.00
2018-07-19T06:03:39.028Z,42752.00
2018-07-19T06:04:39.062Z,41984.00
2018-07-19T06:05:39.082Z,40576.00
2018-07-19T06:06:39.114Z,38880.00
2018-07-19T06:07:39.151Z,37792.00
2018-07-19T06:08:39.193Z,37408.00
2018-07-19T06:09:39.228Z,36480.00
2018-07-19T06:10:39.240Z,35808.00
2018-07-19T06:11:39.267Z,34688.00
2018-07-19T06:12:39.302Z,34176.00
2018-07-19T06:13:39.319Z,34176.00
2018-07-19T06:14:39.345Z,34304.00
2018-07-19T06:15:39.378Z,34080.00
2018-07-19T06:16:39.410Z,33888.00
2018-07-19T06:17:39.437Z,33952.00
2018-07-19T06:18:39.528Z,33984.00
2018-07-19T06:19:39.507Z,35264.00
2018-07-19T06:20:39.545Z,41184.00
2018-07-19T06:21:39.561Z,62080.00
2018-07-19T06:22:39.586Z,89472.00
2018-07-19T06:23:39.617Z,108896.00
2018-07-19T06:24:39.654Z,116256.00
2018-07-19T06:25:39.680Z,105792.00
2018-07-19T06:26:39.702Z,97184.00
2018-07-19T06:27:39.735Z,95616.00
2018-07-19T06:28:39.766Z,100032.00
2018-07-19T06:29:39.794Z,103904.00
2018-07-19T06:30:39.843Z,108800.00
2018-07-19T06:31:39.869Z,109248.00
2018-07-19T06:32:39.894Z,101952.00
2018-07-19T06:33:39.920Z,89728.00
2018-07-19T06:34:39.943Z,79712.00
2018-07-19T06:35:39.976Z,74336.00
2018-07-19T06:36:40.008Z,73888.00
2018-07-19T06:37:40.043Z,74816.00
2018-07-19T06:38:40.071Z,75840.00
2018-07-19T06:39:40.108Z,77888.00
2018-07-19T06:40:40.132Z,82272.00
2018-07-19T06:41:40.161Z,88736.00
2018-07-19T06:42:40.191Z,88128.00
2018-07-19T06:43:40.221Z,85344.00
2018-07-19T06:44:40.255Z,83552.00
2018-07-19T06:45:40.288Z,82368.00
2018-07-19T06:46:40.324Z,81920.00
2018-07-19T06:47:40.343Z,82048.00
2018-07-19T06:48:40.398Z,81184.00
2018-07-19T06:49:40.399Z,80512.00
2018-07-19T06:50:40.437Z,82464.00
2018-07-19T06:51:40.464Z,91744.00
2018-07-19T06:52:40.494Z,92192.00
2018-07-19T06:53:40.526Z,84480.00
2018-07-19T06:54:40.556Z,81024.00
2018-07-19T06:55:40.589Z,80480.00
2018-07-19T06:56:40.618Z,82016.00
2018-07-19T06:57:40.654Z,82400.00
2018-07-19T06:58:40.685Z,87616.00
2018-07-19T06:59:40.720Z,90368.00
2018-07-19T07:00:40.750Z,85984.00
2018-07-19T07:01:40.768Z,81184.00
2018-07-19T07:02:40.807Z,77184.00
2018-07-19T07:03:40.873Z,75264.00
2018-07-19T07:04:40.864Z,79296.00
2018-07-19T07:05:40.909Z,82400.00
2018-07-19T07:06:40.929Z,84064.00
2018-07-19T07:07:40.966Z,86048.00
2018-07-19T07:08:41.009Z,85984.00
2018-07-19T07:09:41.018Z,84128.00
2018-07-19T07:10:41.060Z,83936.00
2018-07-19T07:11:41.085Z,84224.00
2018-07-19T07:12:41.120Z,84448.00
2018-07-19T07:13:41.146Z,81056.00
2018-07-19T07:14:41.176Z,79200.00
2018-07-19T07:15:41.208Z,78112.00
2018-07-19T07:16:41.242Z,80448.00
2018-07-19T07:17:41.273Z,81440.00
2018-07-19T07:18:41.305Z,84032.00
2018-07-19T07:19:41.335Z,89472.00
2018-07-19T07:20:41.360Z,91808.00
2018-07-19T07:21:41.402Z,87616.00
2018-07-19T07:22:41.423Z,86048.00
2018-07-19T07:23:41.456Z,83072.00
2018-07-19T07:24:41.484Z,82816.00
2018-07-19T07:25:41.523Z,82432.00
2018-07-19T07:26:41.552Z,86304.00
2018-07-19T07:27:41.585Z,90016.00
2018-07-19T07:28:41.616Z,92576.00
2018-07-19T07:29:41.678Z,95168.00
2018-07-19T07:30:41.699Z,88576.00
2018-07-19T07:31:41.729Z,79648.00
2018-07-19T07:32:41.739Z,72480.00
2018-07-19T07:33:41.765Z,71904.00
2018-07-19T07:34:41.797Z,76320.00
2018-07-19T07:35:41.832Z,77600.00
2018-07-19T07:36:41.867Z,76864.00
2018-07-19T07:37:41.908Z,74848.00
2018-07-19T07:38:41.931Z,73312.00
2018-07-19T07:39:41.946Z,74688.00
2018-07-19T07:40:41.980Z,73824.00
2018-07-19T07:41:42.016Z,73504.00
2018-07-19T07:42:42.051Z,73472.00
2018-07-19T07:43:42.074Z,72096.00
2018-07-19T07:44:42.106Z,67552.00
2018-07-19T07:45:42.130Z,66720.00
2018-07-19T07:46:42.165Z,63776.00
2018-07-19T07:47:42.197Z,65536.00
2018-07-19T07:48:42.225Z,67616.00
2018-07-19T07:49:42.263Z,69472.00
2018-07-19T07:50:42.292Z,68576.00
2018-07-19T07:51:42.322Z,68256.00
2018-07-19T07:52:42.340Z,66592.00
2018-07-19T07:53:42.377Z,65472.00
2018-07-19T07:54:42.398Z,65056.00
2018-07-19T07:55:42.444Z,67168.00
2018-07-19T07:56:42.478Z,68064.00
2018-07-19T07:57:42.494Z,69184.00
2018-07-19T07:58:42.524Z,72448.00
2018-07-19T07:59:42.560Z,70528.00
2018-07-19T08:00:42.584Z,70144.00
2018-07-19T08:01:42.616Z,69408.00
2018-07-19T08:02:42.648Z,72384.00
2018-07-19T08:03:42.676Z,73568.00
2018-07-19T08:04:42.712Z,74048.00
2018-07-19T08:05:42.730Z,75456.00
2018-07-19T08:06:42.770Z,79456.00
2018-07-19T08:07:42.800Z,76512.00
2018-07-19T08:08:42.827Z,76608.00
2018-07-19T08:09:42.858Z,75552.00
2018-07-19T08:10:42.898Z,74528.00
2018-07-19T08:11:42.912Z,74080.00
2018-07-19T08:12:42.954Z,75072.00
2018-07-19T08:13:42.975Z,73440.00
2018-07-19T08:14:43.013Z,74944.00
2018-07-19T08:15:43.058Z,74144.00
2018-07-19T08:16:43.067Z,74016.00
2018-07-19T08:17:43.094Z,74336.00
2018-07-19T08:18:43.122Z,75040.00
2018-07-19T08:19:43.168Z,76096.00
2018-07-19T08:20:43.192Z,73760.00
2018-07-19T08:21:43.243Z,73920.00
2018-07-19T08:22:43.253Z,73280.00
2018-07-19T08:23:43.293Z,75008.00
2018-07-19T08:24:43.318Z,71680.00
2018-07-19T08:25:43.336Z,73472.00
2018-07-19T08:26:43.371Z,74304.00
2018-07-19T08:27:43.395Z,74944.00
2018-07-19T08:28:43.441Z,75392.00
2018-07-19T08:29:43.458Z,72928.00
2018-07-19T08:30:43.487Z,70720.00
2018-07-19T08:31:43.521Z,68032.00
2018-07-19T08:32:43.544Z,68608.00
2018-07-19T08:33:43.562Z,67872.00
2018-07-19T08:34:43.604Z,69824.00
2018-07-19T08:35:43.642Z,72128.00
2018-07-19T08:36:43.663Z,70656.00
2018-07-19T08:37:43.679Z,48352.00
2018-07-19T08:38:43.719Z,16260.00
2018-07-19T08:39:43.737Z,12884.00
2018-07-19T08:40:43.768Z,12396.00
2018-07-19T08:41:43.825Z,12220.00
2018-07-19T08:42:43.818Z,12152.00
2018-07-19T08:43:43.847Z,12096.00
2018-07-19T08:44:43.876Z,12040.00
2018-07-19T08:45:43.898Z,11992.00
2018-07-19T08:46:43.933Z,11960.00
2018-07-19T08:47:43.956Z,11928.00
2018-07-19T08:48:43.978Z,11896.00
2018-07-19T08:49:44.002Z,11868.00
2018-07-19T08:50:44.041Z,11844.00
2018-07-19T08:51:44.162Z,11812.00
2018-07-19T08:52:44.082Z,11772.00
2018-07-19T08:53:44.109Z,11724.00
2018-07-19T08:54:44.140Z,11676.00
2018-07-19T08:55:44.164Z,11612.00
2018-07-19T08:56:44.243Z,11564.00
2018-07-19T08:57:44.219Z,11540.00
2018-07-19T08:58:44.256Z,11484.00
2018-07-19T08:59:44.263Z,11412.00
2018-07-19T09:00:44.295Z,11396.00
2018-07-19T09:01:44.310Z,11376.00
2018-07-19T09:02:44.343Z,11316.00
2018-07-19T09:03:44.391Z,11284.00
2018-07-19T09:04:44.406Z,11272.00
2018-07-19T09:05:44.418Z,11212.00
2018-07-19T09:06:44.440Z,11128.00
2018-07-19T09:07:44.480Z,11064.00
2018-07-19T09:08:44.525Z,11028.00
2018-07-19T09:09:44.516Z,11028.00
2018-07-19T09:10:44.541Z,11028.00
2018-07-19T09:11:44.569Z,11004.00
2018-07-19T09:12:44.588Z,10988.00
2018-07-19T09:13:44.616Z,10976.00
2018-07-19T09:14:44.642Z,10972.00
2018-07-19T09:15:44.664Z,10944.00
2018-07-19T09:16:44.700Z,10884.00
2018-07-19T09:17:44.716Z,10844.00
2018-07-19T09:18:44.749Z,10812.00
2018-07-19T09:19:44.816Z,10780.00
2018-07-19T09:20:44.815Z,10768.00
2018-07-19T09:21:44.810Z,10760.00
2018-07-19T09:22:44.847Z,10704.00
2018-07-19T09:23:44.861Z,10648.00
2018-07-19T09:24:44.884Z,10584.00
2018-07-19T09:25:44.918Z,10536.00
2018-07-19T09:26:44.932Z,10476.00
2018-07-19T09:27:44.967Z,10400.00
2018-07-19T09:28:44.984Z,10364.00
2018-07-19T09:29:45.011Z,10352.00
2018-07-19T09:30:45.037Z,10336.00
2018-07-19T09:31:45.056Z,10324.00
2018-07-19T09:32:45.114Z,10324.00
2018-07-19T09:33:45.111Z,10328.00
2018-07-19T09:34:45.137Z,10368.00
2018-07-19T09:35:45.157Z,10392.00
2018-07-19T09:36:45.180Z,10352.00
2018-07-19T09:37:45.200Z,10284.00
2018-07-19T09:38:45.235Z,10248.00
2018-07-19T09:39:45.259Z,10184.00
2018-07-19T09:40:45.274Z,10112.00
2018-07-19T09:41:45.346Z,10008.00
2018-07-19T09:42:45.345Z,9936.00
2018-07-19T09:43:45.352Z,9924.00
2018-07-19T09:44:45.385Z,9924.00
2018-07-19T09:45:45.406Z,9940.00
2018-07-19T09:46:45.416Z,9912.00
2018-07-19T09:47:45.456Z,9876.00
2018-07-19T09:48:45.522Z,9820.00
2018-07-19T09:49:45.497Z,9772.00
2018-07-19T09:50:45.517Z,9748.00
2018-07-19T09:51:45.540Z,9728.00
2018-07-19T09:52:45.585Z,9708.00
2018-07-19T09:53:45.602Z,9680.00
2018-07-19T09:54:45.632Z,9664.00
2018-07-19T09:55:45.644Z,9656.00
2018-07-19T09:56:45.678Z,9672.00
2018-07-19T09:57:45.685Z,9708.00
2018-07-19T09:58:45.709Z,9716.00
2018-07-19T09:59:45.731Z,9736.00
2018-07-19T10:00:45.764Z,9716.00
2018-07-19T10:01:45.817Z,9680.00
2018-07-19T10:02:45.808Z,9632.00
2018-07-19T10:03:45.828Z,9572.00
2018-07-19T10:04:45.875Z,9552.00
2018-07-19T10:05:45.944Z,9528.00
2018-07-19T10:06:45.916Z,9492.00
2018-07-19T10:07:45.978Z,9420.00
2018-07-19T10:08:45.958Z,9384.00
2018-07-19T10:09:45.996Z,9360.00
2018-07-19T10:10:46.002Z,9348.00
2018-07-19T10:11:46.028Z,9336.00
2018-07-19T10:12:46.052Z,9324.00
2018-07-19T10:13:46.164Z,9268.00
2018-07-19T10:14:46.100Z,9196.00
2018-07-19T10:15:46.119Z,9112.00
2018-07-19T10:16:46.151Z,9048.00
2018-07-19T10:17:46.192Z,8992.00
2018-07-19T10:18:46.192Z,8980.00
2018-07-19T10:19:46.225Z,8980.00
2018-07-19T10:20:46.253Z,8992.00
2018-07-19T10:21:46.281Z,8972.00
2018-07-19T10:22:46.290Z,8936.00
2018-07-19T10:23:46.312Z,8904.00
2018-07-19T10:24:46.342Z,8876.00
2018-07-19T10:25:46.369Z,8852.00
2018-07-19T10:26:46.415Z,8836.00
2018-07-19T10:27:46.427Z,8816.00
2018-07-19T10:28:46.444Z,8792.00
2018-07-19T10:29:46.469Z,8736.00
2018-07-19T10:30:46.492Z,8688.00
2018-07-19T10:31:46.521Z,8668.00
2018-07-19T10:32:46.562Z,8648.00
2018-07-19T10:33:46.566Z,8636.00
2018-07-19T10:34:46.593Z,8616.00
2018-07-19T10:35:46.610Z,8588.00
2018-07-19T10:36:46.646Z,8556.00
2018-07-19T10:37:46.673Z,8656.00
2018-07-19T10:38:46.688Z,8776.00
2018-07-19T10:39:46.727Z,8776.00
2018-07-19T10:40:46.735Z,8772.00
2018-07-19T10:41:46.768Z,8812.00
2018-07-19T10:42:46.786Z,8856.00
2018-07-19T10:43:46.822Z,8688.00
2018-07-19T10:44:46.829Z,8504.00
2018-07-19T10:45:46.861Z,8428.00
2018-07-19T10:46:46.883Z,8396.00
2018-07-19T10:47:46.913Z,8372.00
2018-07-19T10:48:46.935Z,8352.00
2018-07-19T10:49:46.959Z,8352.00
2018-07-19T10:50:46.982Z,8304.00
2018-07-19T10:51:47.048Z,8256.00
2018-07-19T10:52:47.039Z,7568.00
2018-07-19T10:53:47.051Z,7676.00
2018-07-19T10:54:47.098Z,8228.00
2018-07-19T10:55:47.103Z,8220.00
2018-07-19T10:56:47.125Z,8224.00
2018-07-19T10:57:47.152Z,8160.00
2018-07-19T10:58:47.196Z,8144.00
2018-07-19T10:59:47.211Z,8132.00
2018-07-19T11:00:47.226Z,8128.00
2018-07-19T11:01:47.258Z,8148.00
2018-07-19T11:02:47.285Z,8140.00
2018-07-19T11:03:47.325Z,8408.00
2018-07-19T11:04:47.329Z,8212.00
2018-07-19T11:05:47.355Z,8224.00
2018-07-19T11:06:47.370Z,8160.00
2018-07-19T11:07:47.395Z,8184.00
2018-07-19T11:08:47.418Z,8292.00
2018-07-19T11:09:47.472Z,8360.00
2018-07-19T11:10:47.466Z,8424.00
2018-07-19T11:11:47.496Z,8468.00
2018-07-19T11:12:47.531Z,8604.00
2018-07-19T11:13:47.540Z,8752.00
2018-07-19T11:14:47.568Z,8972.00
2018-07-19T11:15:47.587Z,9228.00
2018-07-19T11:16:47.616Z,9316.00
2018-07-19T11:17:47.651Z,8960.00
2018-07-19T11:18:47.664Z,8640.00
2018-07-19T11:19:47.696Z,8668.00
2018-07-19T11:20:47.720Z,8664.00
2018-07-19T11:21:47.744Z,8784.00
2018-07-19T11:22:47.778Z,8860.00
2018-07-19T11:23:47.795Z,8688.00
2018-07-19T11:24:47.810Z,8432.00
2018-07-19T11:25:47.835Z,8064.00
2018-07-19T11:26:47.859Z,7772.00
2018-07-19T11:27:47.908Z,7464.00
2018-07-19T11:28:47.922Z,7704.00
2018-07-19T11:29:47.938Z,7948.00
2018-07-19T11:30:47.967Z,8044.00
2018-07-19T11:31:47.996Z,7972.00
2018-07-19T11:32:48.012Z,7624.00
2018-07-19T11:33:48.041Z,7516.00
2018-07-19T11:34:48.054Z,7504.00
2018-07-19T11:35:48.081Z,7472.00
2018-07-19T11:36:48.123Z,7464.00
2018-07-19T11:37:48.146Z,7468.00
2018-07-19T11:38:48.163Z,7472.00
2018-07-19T11:39:48.181Z,7440.00
2018-07-19T11:40:48.205Z,7396.00
2018-07-19T11:41:48.232Z,7344.00
2018-07-19T11:42:48.263Z,7324.00
2018-07-19T11:43:48.280Z,7260.00
2018-07-19T11:44:48.308Z,6096.00
2018-07-19T11:45:48.332Z,6920.00
2018-07-19T11:46:48.357Z,7312.00
2018-07-19T11:47:48.387Z,6808.00
2018-07-19T11:48:48.419Z,6564.00
2018-07-19T11:49:48.464Z,6984.00
2018-07-19T11:50:48.461Z,7240.00
2018-07-19T11:51:48.478Z,7252.00
2018-07-19T11:52:48.511Z,7240.00
2018-07-19T11:53:48.536Z,7228.00
2018-07-19T11:54:48.575Z,7224.00
2018-07-19T11:55:48.605Z,7208.00
2018-07-19T11:56:48.606Z,7176.00
2018-07-19T11:57:48.628Z,7168.00
2018-07-19T11:58:48.655Z,7152.00
2018-07-19T11:59:48.700Z,7168.00
2018-07-19T12:00:48.740Z,7116.00
2018-07-19T12:01:48.741Z,7144.00
2018-07-19T12:02:48.755Z,7108.00
2018-07-19T12:03:48.776Z,7116.00
2018-07-19T12:04:48.800Z,7112.00
2018-07-19T12:05:48.823Z,7100.00
2018-07-19T12:06:48.856Z,7076.00
2018-07-19T12:07:48.877Z,7076.00
2018-07-19T12:08:48.905Z,7064.00
2018-07-19T12:09:48.940Z,7108.00
2018-07-19T12:10:48.945Z,7076.00
2018-07-19T12:11:48.968Z,7016.00
2018-07-19T12:12:49.004Z,7004.00
2018-07-19T12:13:49.025Z,6996.00
2018-07-19T12:14:49.045Z,7012.00